Old Laguna, New Mexico
Current Conditions -  °F | °C
As of 9:15 AM on Thursday 27 Nov 2014 (Local Time) from KE80 Reporting Station
Clear Clear  
Wind Chill: 43°   Ceiling: Unl
Heat Index: 46°   Visibility: 10mi
Dew Point: 21°   Wind: 5mph
Humidity: 38%   Direction: 360°N
Pressure: 30.49"   Gusts: NA
Location:  34.9068°N, 107.279°W
Report Text: KE80 271615Z AUTO 36004KT 10SM CLR 08/M06 A3049 RMK AO2 T00761061
Loading
Personal Weather Stations






























Interactive Weather Map New forecast layout! Learn more

10-Day Weather Forecast

Advertisements
Track Severe Weather on mobile